Airfield :
LOGIN :

Register | Disclaimer

   EN    FR    IT 

 










Legend :    VFR   Marginal VFR   IFR   Intensive IFR   Very Intensive IFR
Visi :
Ceiling :
>= 8 km
>= 3000ft
5 to 8 km
1000 to 3000 ft
1500m to 5 km
500 to 1000 ft
800 to 1500m
200 to 500 ft
< 800m
< 200 ft
Symbols :   Thunderstorms  Fog  Heavy snow  Heavy precipitations  Wind > 20 kt
SIGMETs :     Misc.  Thunderstorms  Icing  Turbulence  Mountain Waves  Volcanic Ashes






- Airport Elevation : 29 ft


LIRM - Grazzanise Caserta

CURRENT METAR :
  • 040355Z 04001KT CAVOK 22/22 Q1015 RMK SKC VIS MIN 9999 WIND THR06 08001KT BLU

EXPIRED METARs :
  • 040255Z 23002KT CAVOK 22/21 Q1015 RMK SKC VIS MIN 9999 WIND THR06 24001KT BLU
  • 040155Z 23002KT CAVOK 23/23 Q1015 RMK SKC VIS MIN 9999 WIND THR06 28002KT BLU

TAF TAF LIRM
Valid from the 04 at 03:00 until the 04 at 12:00 UTC


040200Z 0403/0412 11005KT CAVOK
BECMG 0410/0412 24012KT



MET'MAP, your aeronautical weather chart ! - Copyright ORBIFLY December 2007 - Disclaimer

ORBIFLY MET'MAP TEAM :

Programming & Development : Alexandra Zaïnal
Original concept : Baudouin d'Aumeries
Technical & hardware support : Manuel Goepfert
Assistance : Marc-Olivier Méhu




SOURCES & CREDITS :

   NOAA